Time;durP1;ratioP1;P1;durP2;ratioP2;P2;SDS_P1;SDS_P2;PMS_P1;PMS_P2;Temp;Humidity;BMP_temperature;BMP_pressure;BME280_temperature;BME280_humidity;BME280_pressure;Samples;Min_cycle;Max_cycle;Signal;HPM_P1;HPM_P2
2021/04/07 00:01:57;;;;;;;9.85;6.47;;;-1.30;99.90;;;;;;5067576;28;20056;-87
2021/04/07 00:04:25;;;;;;;12.48;6.00;;;-1.30;99.90;;;;;;5077818;28;20067;-86
2021/04/07 00:06:54;;;;;;;12.20;6.53;;;-1.30;99.90;;;;;;5062781;28;20056;-87
2021/04/07 00:09:24;;;;;;;8.45;5.75;;;-1.30;99.90;;;;;;5077827;28;20526;-87
2021/04/07 00:11:53;;;;;;;8.30;6.05;;;-1.30;99.90;;;;;;5077247;28;20140;-88
2021/04/07 00:14:20;;;;;;;8.82;6.10;;;-1.30;99.90;;;;;;5077137;28;20113;-87
2021/04/07 00:16:49;;;;;;;9.02;6.10;;;-1.30;99.90;;;;;;5094638;28;20090;-87
2021/04/07 00:19:16;;;;;;;8.57;5.57;;;-1.30;99.90;;;;;;5078007;28;20062;-86
2021/04/07 00:21:43;;;;;;;8.60;4.68;;;-1.30;99.90;;;;;;5076391;28;20105;-87
2021/04/07 00:24:10;;;;;;;5.35;4.28;;;-1.30;99.90;;;;;;5095538;28;20125;-87
2021/04/07 00:26:36;;;;;;;7.40;5.00;;;-1.30;99.90;;;;;;5094928;28;20464;-86
2021/04/07 00:29:06;;;;;;;10.73;5.30;;;-1.30;99.90;;;;;;5077867;28;20052;-87
2021/04/07 00:31:32;;;;;;;6.90;4.55;;;-1.30;99.90;;;;;;5094908;28;20465;-88
2021/04/07 00:33:59;;;;;;;5.22;4.28;;;-1.40;99.90;;;;;;5082853;28;20040;-87
2021/04/07 00:36:26;;;;;;;6.10;4.82;;;-1.40;99.90;;;;;;5099522;28;20066;-88
2021/04/07 00:38:52;;;;;;;7.65;4.78;;;-1.60;99.90;;;;;;5062349;28;20052;-86
2021/04/07 00:41:18;;;;;;;11.63;4.53;;;-1.60;99.90;;;;;;5095219;28;20048;-87
2021/04/07 00:43:45;;;;;;;6.57;4.68;;;-1.70;99.90;;;;;;5086616;28;20351;-87
2021/04/07 00:46:11;;;;;;;6.30;4.22;;;-1.70;99.90;;;;;;5076803;28;20483;-86
2021/04/07 00:48:38;;;;;;;6.80;4.28;;;-1.70;99.90;;;;;;5094643;28;20043;-88
2021/04/07 00:51:05;;;;;;;9.52;5.65;;;-1.70;99.90;;;;;;5077729;28;20056;-87
2021/04/07 00:53:32;;;;;;;10.55;5.40;;;-1.70;99.90;;;;;;5078468;28;20116;-87
2021/04/07 00:56:02;;;;;;;10.43;4.82;;;-1.70;99.90;;;;;;5094042;28;20066;-88
2021/04/07 00:58:28;;;;;;;6.88;5.40;;;-1.60;99.90;;;;;;5096218;28;20085;-88
2021/04/07 01:00:55;;;;;;;5.50;4.85;;;-1.60;99.90;;;;;;5076171;28;20063;-87
2021/04/07 01:03:24;;;;;;;5.88;4.75;;;-1.60;99.90;;;;;;5061225;28;20048;-88
2021/04/07 01:05:54;;;;;;;6.63;5.15;;;-1.60;99.90;;;;;;5053859;28;20048;-88
2021/04/07 01:08:21;;;;;;;6.53;4.72;;;-1.50;99.90;;;;;;5076504;28;20058;-89
2021/04/07 01:10:48;;;;;;;7.05;4.93;;;-1.50;99.90;;;;;;5063912;28;20060;-87
2021/04/07 01:13:15;;;;;;;7.05;4.40;;;-1.50;99.90;;;;;;5080413;28;20237;-87
2021/04/07 01:15:41;;;;;;;5.95;4.85;;;-1.50;99.90;;;;;;5078059;28;20364;-87
2021/04/07 01:18:08;;;;;;;6.15;4.75;;;-1.50;99.90;;;;;;5093085;28;20048;-88
2021/04/07 01:20:36;;;;;;;5.97;4.53;;;-1.60;99.90;;;;;;5094771;28;20060;-87
2021/04/07 01:23:03;;;;;;;8.10;5.10;;;-1.70;99.90;;;;;;5093279;28;20044;-87
2021/04/07 01:25:30;;;;;;;8.25;5.28;;;-1.80;99.90;;;;;;5093469;28;20492;-87
2021/04/07 01:27:58;;;;;;;6.68;5.68;;;-1.80;99.90;;;;;;5092717;28;20088;-87
2021/04/07 01:30:25;;;;;;;6.88;4.80;;;-1.90;99.90;;;;;;5074974;28;20139;-86
2021/04/07 01:32:51;;;;;;;8.35;5.45;;;-1.90;99.90;;;;;;5075381;28;20436;-86
2021/04/07 01:35:18;;;;;;;14.05;5.78;;;-1.90;99.90;;;;;;5058672;28;20109;-87
2021/04/07 01:37:45;;;;;;;8.50;5.05;;;-2.00;99.90;;;;;;5092820;28;20055;-87
2021/04/07 01:40:15;;;;;;;8.93;5.30;;;-2.00;99.90;;;;;;5074786;28;20074;-86
2021/04/07 01:42:42;;;;;;;7.25;5.70;;;-2.00;99.90;;;;;;5091449;28;20048;-87
2021/04/07 01:45:11;;;;;;;5.97;5.38;;;-2.00;99.90;;;;;;5092697;28;20055;-87
2021/04/07 01:47:38;;;;;;;8.45;5.85;;;-2.10;99.90;;;;;;5075729;28;20067;-87
2021/04/07 01:50:07;;;;;;;8.93;5.15;;;-2.10;99.90;;;;;;5075331;28;20138;-87
2021/04/07 01:52:33;;;;;;;8.80;5.95;;;-2.10;99.90;;;;;;5093827;28;20120;-87
2021/04/07 01:55:00;;;;;;;8.70;5.95;;;-2.10;99.90;;;;;;5067449;28;20128;-87
2021/04/07 01:57:31;;;;;;;7.22;5.57;;;-2.10;99.90;;;;;;5106501;28;20108;-87
2021/04/07 01:59:57;;;;;;;7.72;5.55;;;-2.00;99.90;;;;;;5074259;28;20035;-87
2021/04/07 02:02:24;;;;;;;7.88;6.00;;;-2.00;99.90;;;;;;5087862;28;20048;-89
2021/04/07 02:04:50;;;;;;;8.73;5.00;;;-2.00;99.90;;;;;;5092744;28;20070;-86
2021/04/07 02:07:17;;;;;;;7.13;5.78;;;-1.90;99.90;;;;;;5095586;28;20129;-88
2021/04/07 02:09:44;;;;;;;8.45;6.00;;;-1.90;99.90;;;;;;5088998;28;20063;-89
2021/04/07 02:12:12;;;;;;;6.25;5.38;;;-1.90;99.90;;;;;;5104938;28;20088;-88
2021/04/07 02:14:39;;;;;;;6.82;5.38;;;-1.80;99.90;;;;;;5104161;28;20071;-87
2021/04/07 02:17:06;;;;;;;10.68;5.90;;;-1.90;99.90;;;;;;5076459;28;20460;-88
2021/04/07 02:19:35;;;;;;;9.10;6.10;;;-1.80;99.90;;;;;;5078951;28;20055;-87
2021/04/07 02:22:17;;;;;;;7.68;5.45;;;-1.80;99.90;;;;;;5092523;28;20132;-87
2021/04/07 02:24:45;;;;;;;9.05;5.63;;;-1.80;99.90;;;;;;5069122;28;20070;-87
2021/04/07 02:27:20;;;;;;;8.70;5.20;;;-1.80;99.90;;;;;;5093422;28;20048;-87
2021/04/07 02:29:51;;;;;;;9.20;5.93;;;-1.70;99.90;;;;;;5092396;28;20051;-87
2021/04/07 02:32:18;;;;;;;6.57;5.18;;;-1.70;99.90;;;;;;5092126;28;20380;-87
2021/04/07 02:34:45;;;;;;;6.60;5.75;;;-1.70;99.90;;;;;;5092307;28;20145;-87
2021/04/07 02:37:14;;;;;;;10.75;5.82;;;-1.70;99.90;;;;;;5089589;28;20392;-88
2021/04/07 02:39:42;;;;;;;8.65;5.82;;;-1.70;99.90;;;;;;5076378;28;20433;-88
2021/04/07 02:42:09;;;;;;;9.00;5.88;;;-1.70;99.90;;;;;;5074468;28;20429;-88
2021/04/07 02:44:37;;;;;;;9.82;6.20;;;-1.70;99.90;;;;;;5074318;28;20058;-87
2021/04/07 02:47:04;;;;;;;8.98;5.78;;;-1.60;99.90;;;;;;5074975;28;20079;-87
2021/04/07 02:49:32;;;;;;;11.70;6.55;;;-1.60;99.90;;;;;;5074578;28;20101;-87
2021/04/07 02:52:02;;;;;;;11.00;6.60;;;-1.60;99.90;;;;;;5069847;28;20414;-88
2021/04/07 02:54:28;;;;;;;9.43;6.22;;;-1.60;99.90;;;;;;5092707;28;20048;-87
2021/04/07 02:56:56;;;;;;;10.30;6.07;;;-1.50;99.90;;;;;;5074640;28;20140;-87
2021/04/07 02:59:23;;;;;;;9.85;6.57;;;-1.60;99.90;;;;;;5074680;28;20407;-87
2021/04/07 03:01:49;;;;;;;10.85;6.43;;;-1.50;99.90;;;;;;5074748;28;20048;-87
2021/04/07 03:04:18;;;;;;;10.48;6.47;;;-1.50;99.90;;;;;;5083465;28;20064;-87
2021/04/07 03:06:45;;;;;;;11.80;7.40;;;-1.50;99.90;;;;;;5091962;28;20058;-88
2021/04/07 03:09:12;;;;;;;8.20;6.00;;;-1.60;99.90;;;;;;5060589;28;20052;-87
2021/04/07 03:11:39;;;;;;;10.10;6.53;;;-1.50;99.90;;;;;;5092289;28;20058;-88
2021/04/07 03:14:11;;;;;;;8.98;5.88;;;-1.50;99.90;;;;;;5079439;28;20193;-89
2021/04/07 03:16:38;;;;;;;9.07;6.38;;;-1.50;99.90;;;;;;5092657;28;20056;-87
2021/04/07 03:19:05;;;;;;;9.27;5.90;;;-1.50;99.90;;;;;;5074608;28;20402;-87
2021/04/07 03:21:33;;;;;;;9.15;6.53;;;-1.50;99.90;;;;;;5092522;28;20048;-88
2021/04/07 03:23:59;;;;;;;6.45;5.68;;;-1.50;99.90;;;;;;5074526;28;20127;-88
2021/04/07 03:26:26;;;;;;;8.20;6.00;;;-1.50;99.90;;;;;;5081484;28;20151;-88
2021/04/07 03:28:53;;;;;;;8.48;5.63;;;-1.50;99.90;;;;;;5066422;28;20063;-87
2021/04/07 03:31:21;;;;;;;8.98;6.38;;;-1.50;99.90;;;;;;5081207;28;20131;-89
2021/04/07 03:33:48;;;;;;;11.57;6.07;;;-1.50;99.90;;;;;;5063413;28;20079;-89
2021/04/07 03:36:17;;;;;;;10.57;6.55;;;-1.50;99.90;;;;;;5074591;28;20048;-88
2021/04/07 03:38:47;;;;;;;8.93;6.50;;;-1.50;99.90;;;;;;5075945;28;20338;-87
2021/04/07 03:41:14;;;;;;;8.95;5.60;;;-1.50;99.90;;;;;;5078701;28;20066;-87
2021/04/07 03:43:40;;;;;;;8.57;5.88;;;-1.50;99.90;;;;;;5092294;28;20040;-89
2021/04/07 03:46:06;;;;;;;9.55;5.95;;;-1.50;99.90;;;;;;5092110;28;20040;-87
2021/04/07 03:48:33;;;;;;;11.10;6.40;;;-1.50;99.90;;;;;;5092631;28;20036;-86
2021/04/07 03:51:04;;;;;;;8.18;5.95;;;-1.50;99.90;;;;;;5074341;28;20593;-87
2021/04/07 03:53:32;;;;;;;10.55;5.43;;;-1.50;99.90;;;;;;5091505;28;20050;-88
2021/04/07 03:56:07;;;;;;;11.98;6.45;;;-1.40;99.90;;;;;;5079489;28;20139;-88
2021/04/07 03:58:33;;;;;;;8.45;5.72;;;-1.40;99.90;;;;;;5095392;28;20074;-87
2021/04/07 04:01:04;;;;;;;8.55;6.13;;;-1.40;99.90;;;;;;5061679;28;20127;-88
2021/04/07 04:03:31;;;;;;;9.88;6.13;;;-1.40;99.90;;;;;;5093653;28;20046;-87
2021/04/07 04:06:01;;;;;;;9.18;6.20;;;-1.40;99.90;;;;;;5060583;28;20048;-88
2021/04/07 04:08:29;;;;;;;13.50;6.25;;;-1.40;99.90;;;;;;5096089;28;20048;-88
2021/04/07 04:10:56;;;;;;;9.75;5.55;;;-1.30;99.90;;;;;;5078758;28;20143;-88
2021/04/07 04:13:23;;;;;;;7.78;5.80;;;-1.40;99.90;;;;;;5078181;28;20051;-87
2021/04/07 04:15:50;;;;;;;10.32;6.05;;;-1.40;99.90;;;;;;5085521;28;20123;-87
2021/04/07 04:18:17;;;;;;;10.70;5.88;;;-1.40;99.90;;;;;;5075233;28;20221;-88
2021/04/07 04:20:44;;;;;;;9.20;6.28;;;-1.40;99.90;;;;;;5077858;28;20072;-88
2021/04/07 04:23:11;;;;;;;8.48;5.78;;;-1.40;99.90;;;;;;5052125;28;20047;-89
2021/04/07 04:25:37;;;;;;;6.10;5.05;;;-1.40;99.90;;;;;;5085440;28;20079;-89
2021/04/07 04:28:04;;;;;;;6.70;5.53;;;-1.40;99.90;;;;;;5078171;28;20040;-88
2021/04/07 04:30:31;;;;;;;8.23;5.70;;;-1.40;99.90;;;;;;5092624;28;20047;-87
2021/04/07 04:32:58;;;;;;;8.85;5.57;;;-1.40;99.90;;;;;;5077388;28;20067;-89
2021/04/07 04:35:26;;;;;;;10.23;5.43;;;-1.40;99.90;;;;;;5094977;28;20040;-88
2021/04/07 04:37:53;;;;;;;10.70;6.13;;;-1.30;99.90;;;;;;5093368;28;20115;-88
2021/04/07 04:40:24;;;;;;;7.72;5.35;;;-1.30;99.90;;;;;;5079244;28;20044;-88
2021/04/07 04:42:51;;;;;;;9.88;5.22;;;-1.40;99.90;;;;;;5078230;28;20067;-87
2021/04/07 04:45:18;;;;;;;10.68;5.10;;;-1.40;99.90;;;;;;5094527;28;20078;-86
2021/04/07 04:47:45;;;;;;;6.97;5.03;;;-1.40;99.90;;;;;;5077646;28;20056;-87
2021/04/07 04:50:12;;;;;;;10.15;4.93;;;-1.40;99.90;;;;;;5089355;28;20052;-86
2021/04/07 04:52:39;;;;;;;8.18;4.93;;;-1.40;99.90;;;;;;5077526;28;20048;-88
2021/04/07 04:55:07;;;;;;;7.47;4.72;;;-1.30;99.90;;;;;;5094984;28;20105;-87
2021/04/07 04:57:36;;;;;;;7.55;4.72;;;-1.30;99.90;;;;;;5094341;28;20074;-85
2021/04/07 05:00:05;;;;;;;7.10;5.03;;;-1.30;99.90;;;;;;5083423;28;20056;-87
2021/04/07 05:02:32;;;;;;;7.47;4.90;;;-1.30;99.90;;;;;;5090589;28;20052;-88
2021/04/07 05:05:02;;;;;;;6.80;4.60;;;-1.30;99.90;;;;;;5058092;28;20101;-88
2021/04/07 05:07:30;;;;;;;10.68;4.88;;;-1.30;99.90;;;;;;5081500;28;20111;-87
2021/04/07 05:09:57;;;;;;;6.28;4.35;;;-1.30;99.90;;;;;;5076788;28;20097;-89
2021/04/07 05:12:23;;;;;;;10.00;4.32;;;-1.20;99.90;;;;;;5064641;28;20052;-89
2021/04/07 05:14:51;;;;;;;7.75;4.55;;;-1.20;99.90;;;;;;5094765;28;20120;-89
2021/04/07 05:17:18;;;;;;;9.90;4.38;;;-1.20;99.90;;;;;;5077266;28;20098;-89
2021/04/07 05:19:46;;;;;;;7.45;4.43;;;-1.20;99.90;;;;;;5085947;28;20044;-89
2021/04/07 05:22:15;;;;;;;8.38;4.45;;;-1.20;99.90;;;;;;5077629;28;20052;-89
2021/04/07 05:24:42;;;;;;;6.32;4.60;;;-1.10;99.90;;;;;;5094424;28;20048;-89
2021/04/07 05:27:08;;;;;;;8.25;4.22;;;-1.10;99.90;;;;;;5095124;28;20109;-89
2021/04/07 05:29:37;;;;;;;9.13;4.55;;;-1.10;99.90;;;;;;5093807;28;20052;-89
2021/04/07 05:32:08;;;;;;;8.52;4.00;;;-1.10;99.90;;;;;;5058091;28;20048;-88
2021/04/07 05:34:35;;;;;;;10.27;4.72;;;-1.00;99.90;;;;;;5093510;28;20131;-88
2021/04/07 05:37:16;;;;;;;11.68;4.63;;;-1.00;99.90;;;;;;5094450;28;20075;-89
2021/04/07 05:39:43;;;;;;;9.65;4.60;;;-1.00;99.90;;;;;;5085159;28;20048;-88
2021/04/07 05:42:16;;;;;;;9.88;4.40;;;-1.10;99.90;;;;;;5093333;28;20334;-90
2021/04/07 05:44:45;;;;;;;7.25;4.78;;;-1.10;99.90;;;;;;5076571;28;20052;-91
2021/04/07 05:47:11;;;;;;;11.48;5.13;;;-1.10;99.90;;;;;;5077696;28;20044;-90
2021/04/07 05:49:50;;;;;;;7.72;4.28;;;-1.20;99.90;;;;;;5081632;28;20445;-93
2021/04/07 05:52:16;;;;;;;12.20;4.47;;;-1.20;99.90;;;;;;5098873;28;20048;-91
2021/04/07 05:54:47;;;;;;;8.35;4.05;;;-1.20;99.90;;;;;;5086657;28;20036;-93
2021/04/07 06:00:18;;;;;;;;;;;;;;;;;;;;;
2021/04/07 06:03:36;;;;;;;7.78;4.28;;;-0.90;99.90;;;;;;4980693;28;20058;-90
2021/04/07 06:13:45;;;;;;;9.75;4.80;;;-0.40;99.90;;;;;;4773761;29;20058;-90
2021/04/07 06:20:34;;;;;;;;;;;;;;;;;;;;;
2021/04/07 06:54:17;;;;;;;6.10;3.60;;;2.30;99.90;;;;;;6268657;23;19999;-91
2021/04/07 07:28:36;;;;;;;;;;;;;;;;;;;;;
2021/04/07 07:32:06;;;;;;;;;;;;;;;;;;;;;
2021/04/07 07:42:38;;;;;;;7.15;2.47;;;3.00;92.70;;;;;;4869993;29;20146;-92
2021/04/07 07:45:41;;;;;;;7.03;2.60;;;2.70;88.70;;;;;;4917895;29;20067;-91
2021/04/07 07:48:30;;;;;;;;;;;;;;;;;;;;;
2021/04/07 07:51:36;;;;;;;;;;;;;;;;;;;;;
2021/04/07 07:54:54;;;;;;;5.07;2.63;;;2.50;92.40;;;;;;4933381;29;20052;-91
2021/04/07 07:57:36;;;;;;;11.30;2.17;;;2.50;90.70;;;;;;4906778;29;20092;-89
2021/04/07 08:00:43;;;;;;;;;;;;;;;;;;;;;
2021/04/07 08:03:20;;;;;;;12.77;2.60;;;2.10;89.70;;;;;;4916115;29;20094;-91
2021/04/07 08:05:46;;;;;;;9.80;2.65;;;1.70;93.50;;;;;;4927698;29;20031;-90
2021/04/07 08:08:37;;;;;;;5.07;2.22;;;1.70;94.30;;;;;;4925982;29;20055;-86
2021/04/07 08:11:06;;;;;;;5.53;2.20;;;1.80;96.20;;;;;;4998080;28;20053;-87
2021/04/07 08:13:42;;;;;;;5.93;2.45;;;1.90;96.90;;;;;;5006250;28;20126;-87
2021/04/07 08:16:17;;;;;;;3.83;2.25;;;2.00;95.40;;;;;;4989044;28;20124;-87
2021/04/07 08:29:37;;;;;;;7.43;2.30;;;3.40;89.80;;;;;;4918616;29;20052;-88
2021/04/07 08:32:07;;;;;;;7.85;2.58;;;2.90;92.40;;;;;;4973330;28;20149;-90
2021/04/07 08:34:39;;;;;;;3.67;2.30;;;2.60;97.10;;;;;;5027440;28;20049;-89
2021/04/07 08:37:06;;;;;;;4.90;2.65;;;2.80;99.00;;;;;;5017918;28;20037;-88
2021/04/07 08:39:46;;;;;;;6.57;2.75;;;2.80;96.40;;;;;;5013526;28;20355;-86
2021/04/07 08:42:13;;;;;;;3.88;2.30;;;2.80;96.80;;;;;;5030306;28;20071;-87
2021/04/07 08:44:48;;;;;;;4.75;2.88;;;3.40;92.70;;;;;;5016220;28;20339;-87
2021/04/07 08:47:28;;;;;;;5.78;3.33;;;3.60;90.60;;;;;;5013002;28;20128;-86
2021/04/07 08:50:17;;;;;;;6.60;2.25;;;4.00;87.00;;;;;;5011256;28;20076;-85
2021/04/07 08:52:49;;;;;;;3.53;2.25;;;4.00;85.10;;;;;;5019672;28;20259;-86
2021/04/07 08:55:29;;;;;;;6.20;2.20;;;3.90;86.90;;;;;;5013020;28;20053;-89
2021/04/07 08:58:05;;;;;;;9.13;2.75;;;3.90;89.00;;;;;;5014592;28;20082;-86
2021/04/07 09:00:34;;;;;;;7.05;2.60;;;3.40;87.60;;;;;;5069500;28;20049;-87
2021/04/07 09:03:17;;;;;;;5.63;2.50;;;2.90;93.10;;;;;;5071838;28;20052;-87
2021/04/07 09:05:46;;;;;;;7.10;2.90;;;2.30;97.70;;;;;;5067813;28;20502;-87
2021/04/07 09:08:19;;;;;;;8.63;2.78;;;1.90;99.90;;;;;;5055685;28;20052;-87
2021/04/07 09:10:53;;;;;;;4.80;2.50;;;1.70;99.90;;;;;;5072752;28;20108;-87
2021/04/07 09:13:29;;;;;;;4.53;2.58;;;1.80;99.90;;;;;;5062747;28;20147;-88
2021/04/07 09:16:04;;;;;;;6.30;3.28;;;2.00;99.90;;;;;;5071450;28;20457;-88
2021/04/07 09:18:43;;;;;;;8.43;3.30;;;1.90;99.90;;;;;;5063319;28;20049;-87
2021/04/07 09:21:16;;;;;;;15.35;4.07;;;1.80;99.90;;;;;;5070146;28;20063;-86
2021/04/07 09:23:53;;;;;;;;;;;1.70;99.90;;;;;;5070513;28;20060;-87
2021/04/07 09:26:22;;;;;;;5.68;2.90;;;1.90;99.90;;;;;;5054940;28;19921;-86
2021/04/07 09:28:50;;;;;;;5.60;2.85;;;2.50;99.90;;;;;;5069502;28;20083;-87
2021/04/07 09:31:27;;;;;;;5.32;2.83;;;3.10;99.90;;;;;;5073513;28;20128;-88
2021/04/07 09:34:00;;;;;;;3.80;2.65;;;2.70;99.60;;;;;;5080714;28;20053;-87
2021/04/07 09:36:29;;;;;;;6.70;3.17;;;2.40;99.90;;;;;;5063419;28;20063;-88
2021/04/07 09:39:00;;;;;;;6.78;3.67;;;2.30;99.90;;;;;;5063075;28;20052;-88
2021/04/07 09:41:44;;;;;;;7.07;3.00;;;2.30;99.90;;;;;;5066644;28;20056;-86
2021/04/07 09:44:15;;;;;;;4.28;2.83;;;2.60;99.90;;;;;;5064584;28;20143;-86
2021/04/07 09:46:50;;;;;;;4.90;3.17;;;3.10;95.80;;;;;;5069108;28;20158;-90
2021/04/07 09:49:19;;;;;;;4.13;2.88;;;3.80;90.90;;;;;;5068758;28;20122;-87
2021/04/07 09:51:50;;;;;;;5.38;2.92;;;4.70;86.40;;;;;;5072858;28;20476;-86
2021/04/07 09:54:39;;;;;;;6.22;3.10;;;5.30;82.00;;;;;;5067755;28;20071;-86
2021/04/07 09:57:12;;;;;;;5.20;2.47;;;5.70;78.90;;;;;;5082985;28;20134;-89
2021/04/07 09:59:55;;;;;;;5.90;2.72;;;5.80;76.20;;;;;;5083928;28;20060;-86
2021/04/07 10:02:27;;;;;;;5.93;2.55;;;5.00;74.60;;;;;;5094668;28;20029;-84
2021/04/07 10:05:24;;;;;;;5.90;2.72;;;4.10;77.60;;;;;;5080665;28;20051;-87
2021/04/07 10:07:52;;;;;;;;;;;4.80;75.50;;;;;;5071689;28;20049;-86
2021/04/07 10:10:22;;;;;;;6.65;3.13;;;5.50;72.60;;;;;;5056995;28;19939;-87
2021/04/07 10:13:21;;;;;;;6.05;2.60;;;5.20;70.80;;;;;;5064925;28;20044;-88
2021/04/07 10:15:48;;;;;;;6.72;2.67;;;4.20;76.00;;;;;;5070901;28;20080;-88
2021/04/07 10:18:18;;;;;;;5.82;2.78;;;3.90;80.90;;;;;;5066143;28;20063;-88
2021/04/07 10:20:44;;;;;;;5.68;2.95;;;3.50;83.90;;;;;;5067334;28;20040;-88
2021/04/07 10:23:21;;;;;;;7.57;2.67;;;3.50;81.00;;;;;;5065756;28;20041;-89
2021/04/07 10:25:53;;;;;;;6.72;2.80;;;3.20;82.70;;;;;;5065912;28;20412;-86
2021/04/07 10:28:20;;;;;;;7.47;2.92;;;2.70;89.70;;;;;;5064362;28;20125;-87
2021/04/07 10:31:12;;;;;;;4.40;2.47;;;2.70;91.70;;;;;;5069550;28;20044;-86
2021/04/07 10:33:42;;;;;;;4.40;2.25;;;2.70;88.10;;;;;;5069183;28;20092;-87
2021/04/07 10:36:11;;;;;;;5.15;2.20;;;2.90;83.40;;;;;;5068400;28;20040;-87
2021/04/07 10:38:38;;;;;;;4.85;2.35;;;3.00;83.80;;;;;;5061742;28;20061;-88
2021/04/07 10:41:12;;;;;;;5.55;2.47;;;3.30;82.90;;;;;;5066133;28;20139;-89
2021/04/07 10:43:43;;;;;;;5.00;2.20;;;3.50;81.10;;;;;;5066959;28;20087;-86
2021/04/07 10:46:12;;;;;;;3.58;2.60;;;3.60;79.20;;;;;;5046384;28;20044;-85
2021/04/07 10:48:40;;;;;;;5.75;2.45;;;3.60;79.60;;;;;;5070792;28;20048;-86
2021/04/07 10:51:22;;;;;;;7.78;2.55;;;3.70;79.20;;;;;;5052343;28;20040;-87
2021/04/07 10:53:58;;;;;;;8.60;2.35;;;4.10;77.60;;;;;;5062598;28;20066;-87
2021/04/07 10:56:39;;;;;;;3.92;2.25;;;4.70;76.80;;;;;;5057027;28;20052;-87
2021/04/07 10:59:27;;;;;;;7.68;2.67;;;5.40;72.70;;;;;;5064465;28;20057;-86
2021/04/07 11:01:54;;;;;;;7.30;2.80;;;5.60;72.00;;;;;;5067807;28;20097;-88
2021/04/07 11:04:22;;;;;;;4.70;2.08;;;5.40;71.60;;;;;;5058020;28;20072;-89
2021/04/07 11:06:56;;;;;;;3.53;2.08;;;5.40;70.70;;;;;;5069276;28;20497;-87
2021/04/07 11:09:34;;;;;;;8.70;2.65;;;5.90;68.10;;;;;;5060849;28;20048;-83
2021/04/07 11:12:15;;;;;;;6.15;2.40;;;6.00;65.00;;;;;;5075768;28;20040;-87
2021/04/07 11:14:52;;;;;;;4.32;2.38;;;5.30;64.90;;;;;;5081936;28;20067;-87
2021/04/07 11:17:24;;;;;;;4.60;2.28;;;5.10;68.00;;;;;;5071816;28;20052;-89
2021/04/07 11:19:52;;;;;;;4.00;2.47;;;4.80;69.10;;;;;;5091867;28;20110;-88
2021/04/07 11:22:20;;;;;;;5.18;2.42;;;4.70;69.60;;;;;;5068353;28;20373;-87
2021/04/07 11:24:50;;;;;;;6.68;2.50;;;4.40;67.90;;;;;;5051338;28;20055;-88
2021/04/07 11:27:19;;;;;;;4.78;2.28;;;4.00;69.50;;;;;;5068106;28;20382;-87
2021/04/07 11:29:45;;;;;;;5.93;2.60;;;3.90;69.50;;;;;;5064572;28;20044;-89
2021/04/07 11:32:20;;;;;;;4.43;2.40;;;4.20;67.80;;;;;;5066681;28;20080;-91
2021/04/07 11:35:21;;;;;;;4.22;2.20;;;4.70;67.40;;;;;;5066651;28;20162;-89
2021/04/07 11:38:19;;;;;;;7.18;2.38;;;5.10;66.60;;;;;;5013138;28;20053;-88
2021/04/07 11:44:33;;;;;;;6.78;2.50;;;5.20;65.20;;;;;;5019558;28;20403;-88
2021/04/07 11:47:23;;;;;;;;;;;;;;;;;;;;;
2021/04/07 11:50:09;;;;;;;;;;;;;;;;;;;;;
2021/04/07 11:53:24;;;;;;;6.10;2.70;;;4.20;68.50;;;;;;5029832;28;20111;-88
2021/04/07 11:56:28;;;;;;;;;;;;;;;;;;;;;
2021/04/07 11:59:54;;;;;;;11.03;3.20;;;3.70;68.70;;;;;;5069764;28;20122;-88
2021/04/07 12:02:24;;;;;;;;;;;3.50;70.30;;;;;;5072021;28;20441;-89
2021/04/07 12:05:21;;;;;;;;;;;;;;;;;;;;;
2021/04/07 12:08:20;;;;;;;6.93;2.92;;;3.40;69.80;;;;;;5073728;28;20060;-89
2021/04/07 12:11:28;;;;;;;8.65;3.25;;;3.80;67.40;;;;;;5070257;28;20106;-89
2021/04/07 12:14:35;;;;;;;10.73;2.65;;;4.40;67.30;;;;;;5055121;28;20060;-91
2021/04/07 12:17:34;;;;;;;;;;;;;;;;;;;;;
2021/04/07 12:20:45;;;;;;;6.13;2.65;;;4.70;67.30;;;;;;5000729;28;20602;-90
2021/04/07 12:23:41;;;;;;;;;;;4.90;66.10;;;;;;4991373;28;20317;-90
2021/04/07 12:26:14;;;;;;;8.77;2.83;;;4.70;67.30;;;;;;4998210;28;19988;-87
2021/04/07 12:29:00;;;;;;;4.32;2.65;;;4.50;69.80;;;;;;5013779;28;20095;-90
2021/04/07 12:31:50;;;;;;;7.22;3.00;;;4.60;72.60;;;;;;4999180;28;20060;-89
2021/04/07 12:34:36;;;;;;;;;;;;;;;;;;;;;
2021/04/07 12:37:42;;;;;;;5.68;3.47;;;5.80;68.70;;;;;;4934082;28;20157;-91
2021/04/07 12:40:28;;;;;;;5.65;2.65;;;6.50;68.10;;;;;;4965892;28;20447;-88
2021/04/07 12:42:55;;;;;;;7.63;2.30;;;7.00;64.40;;;;;;4974227;28;20145;-88
2021/04/07 12:45:59;;;;;;;4.93;2.10;;;6.00;62.20;;;;;;4935559;29;20071;-88
2021/04/07 12:48:34;;;;;;;5.18;2.40;;;5.50;65.80;;;;;;4923576;29;20048;-88
2021/04/07 12:51:13;;;;;;;5.72;2.10;;;5.20;67.70;;;;;;4918774;29;20089;-89
2021/04/07 12:53:59;;;;;;;5.88;2.10;;;5.10;69.90;;;;;;4925228;29;20179;-86
2021/04/07 12:59:12;;;;;;;8.15;2.92;;;5.00;71.20;;;;;;4992898;28;20133;-86
2021/04/07 13:01:41;;;;;;;7.90;2.72;;;5.50;71.10;;;;;;5012308;28;20059;-88
2021/04/07 13:04:08;;;;;;;7.72;2.88;;;6.60;67.80;;;;;;5044531;28;20071;-88
2021/04/07 13:06:34;;;;;;;5.28;2.80;;;6.40;65.60;;;;;;5055369;28;20111;-87
2021/04/07 13:09:01;;;;;;;5.82;2.47;;;5.90;65.60;;;;;;5042546;28;20476;-87
2021/04/07 13:11:30;;;;;;;4.50;2.72;;;5.60;67.20;;;;;;5063073;28;20052;-87
2021/04/07 13:13:57;;;;;;;6.70;2.78;;;4.80;70.10;;;;;;5088974;28;20064;-87
2021/04/07 13:17:16;;;;;;;8.77;3.17;;;4.80;71.70;;;;;;5087585;28;20078;-86
2021/04/07 13:20:16;;;;;;;8.38;2.58;;;4.60;74.00;;;;;;5078713;28;20424;-88
2021/04/07 13:23:28;;;;;;;5.68;2.88;;;4.20;74.50;;;;;;5055927;28;20048;-89
2021/04/07 13:25:54;;;;;;;7.53;2.88;;;3.60;77.40;;;;;;5064219;28;20253;-89
2021/04/07 13:28:44;;;;;;;6.57;3.40;;;3.40;81.30;;;;;;5073445;28;20041;-88
2021/04/07 13:31:18;;;;;;;10.82;3.50;;;3.40;81.40;;;;;;5073120;28;20044;-86
2021/04/07 13:33:49;;;;;;;10.45;3.53;;;3.50;83.00;;;;;;5074169;28;20048;-88
2021/04/07 13:36:36;;;;;;;6.55;3.67;;;3.30;85.90;;;;;;5047757;28;20071;-89
2021/04/07 13:39:40;;;;;;;8.52;2.97;;;3.10;86.50;;;;;;5065219;28;20341;-90
2021/04/07 13:44:50;;;;;;;5.78;3.17;;;2.80;89.80;;;;;;5073812;28;20472;-87
2021/04/07 13:47:39;;;;;;;6.50;2.95;;;2.60;91.00;;;;;;5089828;28;20535;-92
2021/04/07 13:50:16;;;;;;;11.73;3.10;;;2.70;92.00;;;;;;5060516;28;20059;-88
2021/04/07 13:52:49;;;;;;;7.50;2.95;;;2.90;93.50;;;;;;5072346;28;20126;-89
2021/04/07 13:55:53;;;;;;;9.07;3.20;;;3.10;91.70;;;;;;5072462;28;20041;-87
2021/04/07 13:58:51;;;;;;;;;;;;;;;;;;;;;
2021/04/07 14:01:49;;;;;;;;;;;;;;;;;;;;;
2021/04/07 14:04:32;;;;;;;6.20;2.88;;;2.80;91.00;;;;;;5071878;28;20489;-89
2021/04/07 14:07:15;;;;;;;4.53;2.75;;;2.50;94.00;;;;;;5070939;28;20125;-90
2021/04/07 14:10:17;;;;;;;;;;;;;;;;;;;;;
2021/04/07 14:15:57;;;;;;;5.07;2.55;;;2.20;99.40;;;;;;5071548;28;20045;-91
2021/04/07 14:18:33;;;;;;;5.28;2.80;;;2.20;98.40;;;;;;5050298;28;20078;-90
2021/04/07 14:21:03;;;;;;;8.93;2.95;;;2.10;99.90;;;;;;5061295;28;20041;-90
2021/04/07 14:23:42;;;;;;;;;;;;;;;;;;;;;
2021/04/07 14:27:02;;;;;;;;;;;;;;;;;;;;;
2021/04/07 14:29:59;;;;;;;;;;;;;;;;;;;;;
2021/04/07 14:32:27;;;;;;;7.47;2.80;;;2.10;99.90;;;;;;5073501;28;20124;-91
2021/04/07 14:35:33;;;;;;;4.85;2.90;;;1.90;99.90;;;;;;5073040;28;20484;-89
2021/04/07 14:38:49;;;;;;;6.57;2.65;;;1.90;99.90;;;;;;5022183;28;20367;-89
2021/04/07 14:41:37;;;;;;;;;;;;;;;;;;;;;
2021/04/07 14:44:28;;;;;;;4.65;2.83;;;1.70;99.90;;;;;;5026500;28;20054;-90
2021/04/07 14:47:04;;;;;;;4.53;2.95;;;1.70;99.90;;;;;;5045956;28;20514;-90
2021/04/07 14:49:38;;;;;;;4.53;2.67;;;1.70;99.90;;;;;;5024973;28;20049;-89
2021/04/07 14:52:20;;;;;;;4.78;3.28;;;1.60;99.90;;;;;;5027436;28;20088;-88
2021/04/07 14:55:05;;;;;;;6.45;3.25;;;1.60;99.90;;;;;;5043764;28;20052;-89
2021/04/07 14:58:03;;;;;;;;;;;;;;;;;;;;;
2021/04/07 15:00:43;;;;;;;5.82;2.95;;;1.50;99.90;;;;;;5009860;28;20371;-89
2021/04/07 15:03:30;;;;;;;7.47;4.15;;;1.40;99.90;;;;;;5004467;28;20061;-88
2021/04/07 15:06:16;;;;;;;7.30;2.70;;;1.40;99.90;;;;;;4994858;28;20073;-89
2021/04/07 15:08:46;;;;;;;6.88;3.55;;;1.40;99.90;;;;;;5006099;28;20483;-88
2021/04/07 15:11:20;;;;;;;4.22;3.00;;;1.40;99.90;;;;;;5010012;28;20451;-88
2021/04/07 15:13:46;;;;;;;7.75;3.40;;;1.40;99.90;;;;;;4994209;28;20203;-88
2021/04/07 15:16:19;;;;;;;4.30;2.88;;;1.40;99.90;;;;;;5010890;28;20386;-89
2021/04/07 15:19:15;;;;;;;4.25;3.20;;;1.30;99.90;;;;;;4920701;29;20051;-85
2021/04/07 15:21:44;;;;;;;5.00;3.40;;;1.30;99.90;;;;;;4927224;28;20046;-87
2021/04/07 15:24:15;;;;;;;8.73;3.77;;;1.30;99.90;;;;;;4973866;28;20113;-86
2021/04/07 15:26:48;;;;;;;5.38;3.20;;;1.30;99.90;;;;;;4989560;28;20094;-87
2021/04/07 15:29:19;;;;;;;7.22;3.53;;;1.10;99.90;;;;;;4996913;28;20050;-87
2021/04/07 15:31:46;;;;;;;9.75;4.70;;;1.10;99.90;;;;;;4989840;28;20046;-89
2021/04/07 15:34:19;;;;;;;8.82;4.53;;;0.80;99.90;;;;;;4993439;28;20050;-86
2021/04/07 15:36:48;;;;;;;13.07;5.03;;;0.60;99.90;;;;;;5033060;28;20360;-89
2021/04/07 15:39:20;;;;;;;12.57;5.10;;;0.40;99.90;;;;;;5047513;28;20055;-90
2021/04/07 15:41:47;;;;;;;13.30;5.50;;;0.30;99.90;;;;;;5075731;28;20521;-88
2021/04/07 15:44:20;;;;;;;11.27;5.05;;;0.20;99.90;;;;;;5071815;28;20072;-90
2021/04/07 15:46:47;;;;;;;12.75;5.68;;;0.00;99.90;;;;;;5064481;28;20109;-89